This is the latest recevied weather packets stored in our database for station/object WC4PEM-8. If no packets are shown the sender has not sent any weather packets the latest 10 day(s).
| Time | Temp. | Humidity | Pressure | Rain* | Wind** | Luminosity | Snow |
|---|---|---|---|---|---|---|---|
| 1777491439 | 32.22° C | 45% | 1013.3 hPa | 0 mm | - | - | - |
| 1777491374 | 32.22° C | 45% | 1013.3 hPa | 0 mm | - | - | - |
| 1777491074 | 32.22° C | 44% | 1013.5 hPa | 0 mm | - | - | - |
| 1777490774 | 31.67° C | 45% | 1013.4 hPa | 0 mm | - | - | - |
| 1777490574 | 31.67° C | 45% | 1013.6 hPa | 0 mm | - | - | - |
| 1777490474 | 31.67° C | 45% | 1013.6 hPa | 0 mm | - | - | - |
| 1777490174 | 31.11° C | 46% | 1013.6 hPa | 0 mm | - | - | - |
| 1777489938 | 31.11° C | 46% | 1013.9 hPa | 0 mm | - | - | - |
| 1777489874 | 31.11° C | 46% | 1013.9 hPa | 0 mm | - | - | - |
| 1777489574 | 31.67° C | 46% | 1013.9 hPa | 0 mm | - | - | - |
| 1777489415 | 31.11° C | 46% | 1014.1 hPa | 0 mm | - | - | - |
| 1777489311 | 31.11° C | 46% | 1014.1 hPa | 0 mm | - | - | - |
| 1777489274 | 31.11° C | 46% | 1014.1 hPa | 0 mm | - | - | - |
| 1777488974 | 31.67° C | 47% | 1014.1 hPa | 0 mm | - | - | - |
| 1777488675 | 31.67° C | 47% | 1014.2 hPa | 0 mm | - | - | - |
| 1777488374 | 31.67° C | 47% | 1014.2 hPa | 0 mm | - | - | - |
| 1777488074 | 31.67° C | 46% | 1014.3 hPa | 0 mm | - | - | - |
| 1777487882 | 31.67° C | 46% | 1014.3 hPa | 0 mm | - | - | - |
| 1777487775 | 31.67° C | 46% | 1014.3 hPa | 0 mm | - | - | - |
| 1777487721 | 32.22° C | 46% | 1014.4 hPa | 0 mm | - | - | - |
| 1777487474 | 32.22° C | 46% | 1014.4 hPa | 0 mm | - | - | - |
| 1777487331 | 31.67° C | 46% | 1014.5 hPa | 0 mm | - | - | - |
| 1777487175 | 31.67° C | 46% | 1014.5 hPa | 0 mm | - | - | - |
| 1777486951 | 30° C | 52% | 1015.2 hPa | 0 mm | - | - | - |
| 1777486875 | 31.11° C | 49% | 1014.5 hPa | 0 mm | - | - | - |
* Rain latest hour (hover to see other rain measurements)
** Current wind speed in m/s (hover to see current wind gust speed)